AVA8598 SKPS-SKBO
Flight info
| Callsign | AVA8598 |
|---|---|
| Flight time | 0h 47m |
| Altitude | 35000 |
| Route | TITGU2A TITGU DCT ESARO DCT GIR GIR5E |
| Aircraft | A320/M-SDE3FGHIRWY/LB1 |
Departure
| Time | 2026-05-06 19:40 |
|---|---|
| Airport | Antonio Nariño Airport (SKPS) |
Arrival
| Time | 2026-05-06 20:28 |
|---|---|
| Airport | El Dorado International Airport (SKBO) |
| Time | Latitude | Longitude | Altitude | Speed | Heading |
|---|---|---|---|---|---|
| 2026-05-06 19:17 | 1.39574 | -77.28991 | 5908 ft | 0 kts | 104° |
| 2026-05-06 19:31 | 1.39578 | -77.29006 | 5908 ft | 3 kts | 103° |
| 2026-05-06 19:32 | 1.39583 | -77.29028 | 5908 ft | 3 kts | 102° |
| 2026-05-06 19:32 | 1.39588 | -77.29050 | 5908 ft | 3 kts | 102° |
| 2026-05-06 19:32 | 1.39592 | -77.29069 | 5908 ft | 2 kts | 105° |
| 2026-05-06 19:32 | 1.39598 | -77.29090 | 5908 ft | 3 kts | 117° |
| 2026-05-06 19:33 | 1.39610 | -77.29105 | 5907 ft | 3 kts | 161° |
| 2026-05-06 19:33 | 1.39622 | -77.29107 | 5907 ft | 1 kts | 195° |
| 2026-05-06 19:36 | 1.39621 | -77.29107 | 5907 ft | 1 kts | 195° |
| 2026-05-06 19:36 | 1.39586 | -77.29117 | 5909 ft | 10 kts | 195° |
| 2026-05-06 19:36 | 1.39495 | -77.29142 | 5914 ft | 17 kts | 195° |
| 2026-05-06 19:36 | 1.39356 | -77.29179 | 5921 ft | 21 kts | 194° |
| 2026-05-06 19:37 | 1.39225 | -77.29213 | 5926 ft | 18 kts | 195° |
| 2026-05-06 19:37 | 1.39105 | -77.29245 | 5933 ft | 18 kts | 195° |
| 2026-05-06 19:37 | 1.38993 | -77.29275 | 5934 ft | 15 kts | 195° |
| 2026-05-06 19:37 | 1.38930 | -77.29292 | 5943 ft | 13 kts | 195° |
| 2026-05-06 19:38 | 1.38839 | -77.29317 | 5943 ft | 9 kts | 195° |
| 2026-05-06 19:38 | 1.38787 | -77.29331 | 5952 ft | 6 kts | 195° |
| 2026-05-06 19:38 | 1.38750 | -77.29341 | 5954 ft | 5 kts | 195° |
| 2026-05-06 19:38 | 1.38711 | -77.29347 | 5956 ft | 4 kts | 177° |
| 2026-05-06 19:39 | 1.38686 | -77.29344 | 5958 ft | 8 kts | 174° |
| 2026-05-06 19:39 | 1.38662 | -77.29361 | 5959 ft | 2 kts | 281° |
| 2026-05-06 19:39 | 1.38695 | -77.29356 | 5957 ft | 7 kts | 18° |
| 2026-05-06 19:39 | 1.38777 | -77.29333 | 5951 ft | 26 kts | 15° |
| 2026-05-06 19:40 | 1.39250 | -77.29207 | 5927 ft | 114 kts | 15° |
| 2026-05-06 19:40 | 1.40271 | -77.28933 | 5938 ft | 183 kts | 15° |
| 2026-05-06 19:40 | 1.41563 | -77.28602 | 6684 ft | 193 kts | 14° |
| 2026-05-06 19:40 | 1.42847 | -77.28262 | 7707 ft | 189 kts | 15° |
| 2026-05-06 19:41 | 1.44108 | -77.27926 | 8619 ft | 185 kts | 15° |
| 2026-05-06 19:41 | 1.45349 | -77.27629 | 9089 ft | 183 kts | 8° |
| 2026-05-06 19:41 | 1.46659 | -77.27586 | 9306 ft | 197 kts | 355° |
| 2026-05-06 19:41 | 1.48056 | -77.27872 | 9444 ft | 213 kts | 347° |
| 2026-05-06 19:42 | 1.49542 | -77.28235 | 9578 ft | 227 kts | 348° |
| 2026-05-06 19:42 | 1.51137 | -77.28619 | 9694 ft | 246 kts | 347° |
| 2026-05-06 19:42 | 1.52882 | -77.29037 | 9918 ft | 271 kts | 348° |
| 2026-05-06 19:42 | 1.54793 | -77.29496 | 10235 ft | 293 kts | 348° |
| 2026-05-06 19:43 | 1.56808 | -77.29978 | 10837 ft | 302 kts | 348° |
| 2026-05-06 19:43 | 1.58866 | -77.30474 | 11583 ft | 307 kts | 348° |
| 2026-05-06 19:43 | 1.60274 | -77.30814 | 12097 ft | 309 kts | 348° |
| 2026-05-06 19:43 | 1.62377 | -77.31323 | 12838 ft | 313 kts | 349° |
| 2026-05-06 19:44 | 1.64503 | -77.31838 | 13565 ft | 316 kts | 348° |
| 2026-05-06 19:44 | 1.66623 | -77.32350 | 14267 ft | 320 kts | 348° |
| 2026-05-06 19:44 | 1.68799 | -77.32873 | 14950 ft | 323 kts | 348° |
| 2026-05-06 19:44 | 1.71008 | -77.33341 | 15628 ft | 326 kts | 353° |
| 2026-05-06 19:45 | 1.73269 | -77.33565 | 16295 ft | 327 kts | 0° |
| 2026-05-06 19:45 | 1.75600 | -77.33510 | 16507 ft | 344 kts | 8° |
| 2026-05-06 19:45 | 1.78024 | -77.33113 | 16639 ft | 362 kts | 15° |
| 2026-05-06 19:45 | 1.80484 | -77.32351 | 16768 ft | 379 kts | 23° |
| 2026-05-06 19:46 | 1.82911 | -77.31209 | 16955 ft | 391 kts | 31° |
| 2026-05-06 19:46 | 1.85190 | -77.29702 | 17392 ft | 395 kts | 39° |
| 2026-05-06 19:46 | 1.87381 | -77.28017 | 17892 ft | 399 kts | 39° |
| 2026-05-06 19:46 | 1.89629 | -77.26310 | 18398 ft | 402 kts | 39° |
| 2026-05-06 19:47 | 1.91739 | -77.24470 | 18872 ft | 404 kts | 48° |
| 2026-05-06 19:47 | 1.93480 | -77.22317 | 19331 ft | 405 kts | 56° |
| 2026-05-06 19:47 | 1.95109 | -77.19967 | 19803 ft | 407 kts | 57° |
| 2026-05-06 19:47 | 1.96726 | -77.17631 | 20242 ft | 410 kts | 57° |
| 2026-05-06 19:48 | 1.98433 | -77.15383 | 20669 ft | 414 kts | 49° |
| 2026-05-06 19:48 | 2.00436 | -77.13304 | 21102 ft | 416 kts | 47° |
| 2026-05-06 19:48 | 2.02459 | -77.11221 | 21538 ft | 418 kts | 47° |
| 2026-05-06 19:48 | 2.04494 | -77.09128 | 21950 ft | 421 kts | 47° |
| 2026-05-06 19:49 | 2.06543 | -77.07023 | 22328 ft | 424 kts | 47° |
| 2026-05-06 19:49 | 2.08607 | -77.04904 | 22713 ft | 427 kts | 47° |
| 2026-05-06 19:49 | 2.10685 | -77.02772 | 23096 ft | 429 kts | 47° |
| 2026-05-06 19:49 | 2.12772 | -77.00629 | 23461 ft | 431 kts | 47° |
| 2026-05-06 19:50 | 2.14872 | -76.98473 | 23788 ft | 434 kts | 47° |
| 2026-05-06 19:50 | 2.16982 | -76.96304 | 24132 ft | 436 kts | 47° |
| 2026-05-06 19:50 | 2.19103 | -76.94120 | 24463 ft | 439 kts | 47° |
| 2026-05-06 19:50 | 2.21234 | -76.91924 | 24777 ft | 441 kts | 47° |
| 2026-05-06 19:51 | 2.23379 | -76.89716 | 25080 ft | 444 kts | 47° |
| 2026-05-06 19:51 | 2.25535 | -76.87498 | 25371 ft | 446 kts | 47° |
| 2026-05-06 19:51 | 2.27703 | -76.85271 | 25666 ft | 448 kts | 47° |
| 2026-05-06 19:51 | 2.29881 | -76.83032 | 25957 ft | 450 kts | 47° |
| 2026-05-06 19:52 | 2.32069 | -76.80782 | 26256 ft | 452 kts | 47° |
| 2026-05-06 19:52 | 2.34266 | -76.78522 | 26538 ft | 455 kts | 47° |
| 2026-05-06 19:52 | 2.36478 | -76.76249 | 26811 ft | 457 kts | 47° |
| 2026-05-06 19:52 | 2.38696 | -76.73969 | 27079 ft | 458 kts | 47° |
| 2026-05-06 19:53 | 2.40920 | -76.71678 | 27331 ft | 460 kts | 47° |
| 2026-05-06 19:53 | 2.43159 | -76.69372 | 27572 ft | 462 kts | 47° |
| 2026-05-06 19:53 | 2.45401 | -76.67063 | 27820 ft | 464 kts | 47° |
| 2026-05-06 19:53 | 2.47648 | -76.64740 | 28073 ft | 466 kts | 47° |
| 2026-05-06 19:54 | 2.49903 | -76.62402 | 28324 ft | 467 kts | 47° |
| 2026-05-06 19:54 | 2.52163 | -76.60059 | 28567 ft | 469 kts | 47° |
| 2026-05-06 19:54 | 2.54434 | -76.57704 | 28810 ft | 471 kts | 47° |
| 2026-05-06 19:54 | 2.56710 | -76.55343 | 29043 ft | 473 kts | 47° |
| 2026-05-06 19:55 | 2.58993 | -76.52978 | 29366 ft | 472 kts | 47° |
| 2026-05-06 19:55 | 2.61272 | -76.50620 | 29697 ft | 471 kts | 47° |
| 2026-05-06 19:55 | 2.63548 | -76.48269 | 30001 ft | 471 kts | 47° |
| 2026-05-06 19:55 | 2.65823 | -76.45913 | 30329 ft | 470 kts | 47° |
| 2026-05-06 19:56 | 2.68088 | -76.43561 | 30673 ft | 469 kts | 47° |
| 2026-05-06 19:56 | 2.70350 | -76.41211 | 30987 ft | 469 kts | 47° |
| 2026-05-06 19:56 | 2.72610 | -76.38861 | 31279 ft | 469 kts | 47° |
| 2026-05-06 19:56 | 2.74875 | -76.36509 | 31584 ft | 469 kts | 47° |
| 2026-05-06 19:57 | 2.77138 | -76.34162 | 31895 ft | 469 kts | 47° |
| 2026-05-06 19:57 | 2.79404 | -76.31815 | 32219 ft | 468 kts | 47° |
| 2026-05-06 19:57 | 2.81669 | -76.29471 | 32521 ft | 468 kts | 47° |
| 2026-05-06 19:57 | 2.83927 | -76.27132 | 32811 ft | 468 kts | 47° |
| 2026-05-06 19:58 | 2.86186 | -76.24789 | 33096 ft | 468 kts | 47° |
| 2026-05-06 19:58 | 2.88444 | -76.22450 | 33390 ft | 467 kts | 47° |
| 2026-05-06 19:58 | 2.90701 | -76.20112 | 33702 ft | 467 kts | 47° |
| 2026-05-06 19:58 | 2.92957 | -76.17775 | 34008 ft | 467 kts | 47° |
| 2026-05-06 19:59 | 2.95211 | -76.15437 | 34314 ft | 467 kts | 47° |
| 2026-05-06 19:59 | 2.97464 | -76.13103 | 34601 ft | 466 kts | 47° |
| 2026-05-06 19:59 | 2.99716 | -76.10768 | 34889 ft | 466 kts | 47° |
| 2026-05-06 19:59 | 3.01967 | -76.08433 | 35047 ft | 467 kts | 47° |
| 2026-05-06 20:00 | 3.06482 | -76.03751 | 35075 ft | 468 kts | 47° |
| 2026-05-06 20:00 | 3.11000 | -75.99066 | 35065 ft | 468 kts | 47° |
| 2026-05-06 20:01 | 3.15515 | -75.94380 | 35067 ft | 468 kts | 47° |
| 2026-05-06 20:01 | 3.20028 | -75.89689 | 35051 ft | 468 kts | 47° |
| 2026-05-06 20:02 | 3.24537 | -75.84998 | 35052 ft | 468 kts | 47° |
| 2026-05-06 20:02 | 3.29027 | -75.80345 | 35052 ft | 468 kts | 47° |
| 2026-05-06 20:03 | 3.33574 | -75.75628 | 35059 ft | 468 kts | 46° |
| 2026-05-06 20:03 | 3.38101 | -75.70936 | 35061 ft | 468 kts | 47° |
| 2026-05-06 20:04 | 3.42621 | -75.66242 | 35057 ft | 468 kts | 47° |
| 2026-05-06 20:04 | 3.47135 | -75.61547 | 35052 ft | 468 kts | 47° |
| 2026-05-06 20:05 | 3.51611 | -75.56884 | 35049 ft | 468 kts | 47° |
| 2026-05-06 20:05 | 3.56122 | -75.52198 | 35044 ft | 467 kts | 47° |
| 2026-05-06 20:06 | 3.60633 | -75.47510 | 35037 ft | 468 kts | 47° |
| 2026-05-06 20:06 | 3.65148 | -75.42820 | 35027 ft | 468 kts | 47° |
| 2026-05-06 20:07 | 3.69663 | -75.38136 | 35024 ft | 468 kts | 47° |
| 2026-05-06 20:07 | 3.74180 | -75.33447 | 35018 ft | 468 kts | 47° |
| 2026-05-06 20:08 | 3.78690 | -75.28750 | 35022 ft | 468 kts | 47° |
| 2026-05-06 20:08 | 3.83205 | -75.24053 | 35017 ft | 468 kts | 47° |
| 2026-05-06 20:09 | 3.87720 | -75.19356 | 35018 ft | 468 kts | 47° |
| 2026-05-06 20:09 | 3.92232 | -75.14657 | 35019 ft | 468 kts | 47° |
| 2026-05-06 20:10 | 3.96748 | -75.09960 | 34970 ft | 468 kts | 47° |
| 2026-05-06 20:10 | 4.01262 | -75.05264 | 34946 ft | 468 kts | 47° |
| 2026-05-06 20:11 | 4.03519 | -75.02919 | 34538 ft | 469 kts | 47° |
| 2026-05-06 20:11 | 4.05800 | -75.00543 | 33427 ft | 477 kts | 47° |
| 2026-05-06 20:11 | 4.08110 | -74.98135 | 32410 ft | 481 kts | 47° |
| 2026-05-06 20:11 | 4.10433 | -74.95711 | 31409 ft | 484 kts | 47° |
| 2026-05-06 20:12 | 4.12767 | -74.93275 | 30420 ft | 485 kts | 47° |
| 2026-05-06 20:12 | 4.15131 | -74.90856 | 29359 ft | 487 kts | 44° |
| 2026-05-06 20:12 | 4.17800 | -74.88750 | 28277 ft | 490 kts | 34° |
| 2026-05-06 20:12 | 4.20805 | -74.87119 | 27127 ft | 493 kts | 24° |
| 2026-05-06 20:13 | 4.24069 | -74.86027 | 25951 ft | 497 kts | 14° |
| 2026-05-06 20:13 | 4.27473 | -74.85480 | 24962 ft | 494 kts | 8° |
| 2026-05-06 20:13 | 4.30876 | -74.85043 | 23949 ft | 491 kts | 8° |
| 2026-05-06 20:13 | 4.34206 | -74.84608 | 23697 ft | 472 kts | 8° |
| 2026-05-06 20:14 | 4.37405 | -74.84190 | 23222 ft | 459 kts | 8° |
| 2026-05-06 20:14 | 4.40561 | -74.83775 | 22467 ft | 455 kts | 9° |
| 2026-05-06 20:14 | 4.43687 | -74.83361 | 21774 ft | 451 kts | 9° |
| 2026-05-06 20:14 | 4.46777 | -74.82954 | 21166 ft | 446 kts | 9° |
| 2026-05-06 20:15 | 4.49841 | -74.82550 | 20604 ft | 441 kts | 9° |
| 2026-05-06 20:15 | 4.52861 | -74.82150 | 19994 ft | 435 kts | 9° |
| 2026-05-06 20:15 | 4.55847 | -74.81756 | 19357 ft | 430 kts | 9° |
| 2026-05-06 20:15 | 4.58795 | -74.81366 | 18722 ft | 425 kts | 9° |
| 2026-05-06 20:16 | 4.61707 | -74.80980 | 18228 ft | 417 kts | 10° |
| 2026-05-06 20:16 | 4.64536 | -74.80607 | 18000 ft | 403 kts | 10° |
| 2026-05-06 20:16 | 4.67264 | -74.80249 | 17875 ft | 388 kts | 10° |
| 2026-05-06 20:16 | 4.69895 | -74.79903 | 17750 ft | 374 kts | 10° |
| 2026-05-06 20:17 | 4.72429 | -74.79569 | 17622 ft | 361 kts | 10° |
| 2026-05-06 20:17 | 4.74871 | -74.79200 | 17501 ft | 347 kts | 16° |
| 2026-05-06 20:17 | 4.77047 | -74.78321 | 17371 ft | 331 kts | 34° |
| 2026-05-06 20:17 | 4.78781 | -74.76882 | 17247 ft | 320 kts | 51° |
| 2026-05-06 20:18 | 4.79974 | -74.75031 | 17120 ft | 315 kts | 68° |
| 2026-05-06 20:18 | 4.80702 | -74.72973 | 16991 ft | 313 kts | 72° |
| 2026-05-06 20:18 | 4.81398 | -74.70905 | 16861 ft | 312 kts | 72° |
| 2026-05-06 20:18 | 4.82093 | -74.68848 | 16746 ft | 312 kts | 72° |
| 2026-05-06 20:19 | 4.82788 | -74.66785 | 16609 ft | 312 kts | 72° |
| 2026-05-06 20:19 | 4.83479 | -74.64728 | 16483 ft | 312 kts | 72° |
| 2026-05-06 20:19 | 4.84172 | -74.62667 | 16364 ft | 312 kts | 72° |
| 2026-05-06 20:19 | 4.84869 | -74.60603 | 16154 ft | 313 kts | 72° |
| 2026-05-06 20:20 | 4.85566 | -74.58542 | 15706 ft | 313 kts | 71° |
| 2026-05-06 20:20 | 4.86262 | -74.56470 | 15277 ft | 313 kts | 72° |
| 2026-05-06 20:20 | 4.86927 | -74.54384 | 14898 ft | 312 kts | 77° |
| 2026-05-06 20:20 | 4.87113 | -74.52273 | 14375 ft | 307 kts | 89° |
| 2026-05-06 20:21 | 4.87110 | -74.50144 | 13653 ft | 305 kts | 90° |
| 2026-05-06 20:21 | 4.87092 | -74.48018 | 12991 ft | 304 kts | 90° |
| 2026-05-06 20:21 | 4.87067 | -74.45902 | 12404 ft | 304 kts | 90° |
| 2026-05-06 20:21 | 4.87043 | -74.43833 | 12170 ft | 290 kts | 90° |
| 2026-05-06 20:22 | 4.87022 | -74.41849 | 12050 ft | 278 kts | 90° |
| 2026-05-06 20:22 | 4.87000 | -74.39951 | 11951 ft | 268 kts | 91° |
| 2026-05-06 20:22 | 4.86750 | -74.38138 | 11837 ft | 259 kts | 108° |
| 2026-05-06 20:22 | 4.85934 | -74.36578 | 11847 ft | 247 kts | 126° |
| 2026-05-06 20:23 | 4.84914 | -74.35235 | 11859 ft | 239 kts | 126° |
| 2026-05-06 20:23 | 4.83923 | -74.33926 | 11870 ft | 234 kts | 126° |
| 2026-05-06 20:23 | 4.82941 | -74.32628 | 11900 ft | 234 kts | 126° |
| 2026-05-06 20:23 | 4.81957 | -74.31327 | 11805 ft | 235 kts | 126° |
| 2026-05-06 20:24 | 4.80982 | -74.30038 | 11581 ft | 228 kts | 126° |
| 2026-05-06 20:24 | 4.80035 | -74.28789 | 11273 ft | 222 kts | 126° |
| 2026-05-06 20:24 | 4.79112 | -74.27571 | 10961 ft | 217 kts | 126° |
| 2026-05-06 20:24 | 4.78213 | -74.26383 | 10655 ft | 211 kts | 126° |
| 2026-05-06 20:25 | 4.77341 | -74.25231 | 10409 ft | 202 kts | 127° |
| 2026-05-06 20:25 | 4.76524 | -74.24150 | 10132 ft | 188 kts | 127° |
| 2026-05-06 20:25 | 4.75777 | -74.23162 | 9905 ft | 169 kts | 127° |
| 2026-05-06 20:25 | 4.75092 | -74.22256 | 9683 ft | 159 kts | 128° |
| 2026-05-06 20:26 | 4.74433 | -74.21386 | 9478 ft | 155 kts | 128° |
| 2026-05-06 20:26 | 4.73785 | -74.20531 | 9274 ft | 153 kts | 128° |
| 2026-05-06 20:26 | 4.73143 | -74.19681 | 9059 ft | 152 kts | 128° |
| 2026-05-06 20:26 | 4.72504 | -74.18831 | 8867 ft | 153 kts | 127° |
| 2026-05-06 20:27 | 4.72079 | -74.18268 | 8725 ft | 152 kts | 129° |
| 2026-05-06 20:27 | 4.71442 | -74.17428 | 8522 ft | 151 kts | 128° |
| 2026-05-06 20:27 | 4.70810 | -74.16589 | 8379 ft | 148 kts | 127° |
| 2026-05-06 20:27 | 4.70273 | -74.15884 | 8373 ft | 103 kts | 127° |
| 2026-05-06 20:28 | 4.69944 | -74.15448 | 8374 ft | 57 kts | 127° |
| 2026-05-06 20:28 | 4.69756 | -74.15183 | 8374 ft | 35 kts | 116° |
| 2026-05-06 20:28 | 4.69718 | -74.15005 | 8373 ft | 16 kts | 95° |
| 2026-05-06 20:28 | 4.69707 | -74.14892 | 8373 ft | 17 kts | 89° |
| 2026-05-06 20:29 | 4.69774 | -74.14802 | 8371 ft | 17 kts | 34° |
| 2026-05-06 20:29 | 4.69852 | -74.14735 | 8372 ft | 12 kts | 70° |
| 2026-05-06 20:29 | 4.69815 | -74.14665 | 8373 ft | 12 kts | 127° |
| 2026-05-06 20:29 | 4.69771 | -74.14629 | 8373 ft | 8 kts | 212° |
| 2026-05-06 20:30 | 4.69748 | -74.14652 | 8373 ft | 2 kts | 219° |
| 2026-05-06 20:30 | 4.69743 | -74.14656 | 8371 ft | 0 kts | 218° |